Aeroporto :
LOGIN :

Iscrizione | Disclaimer

   EN    FR    IT 

 










Sommario :    VFR   VFR Marginale   IFR   IFR Intensivo   IFR Molto Intensivo
Visibilità : 
Base nubi : 
>= 8 km
>= 3000ft
5 / 8 km
1000 / 3000 ft
1500m / 5 km
500 / 1000 ft
800 / 1500m
200 / 500 ft
< 800m
< 200 ft
Simboli :   Temporali  Nebbia  Neve Forte  Precipitazioni Forti  Vento > 20 kt
SIGMETs :   Varie  Temporali  Ghiacco  Turbolenza  Onda orograficha  Ceneri Vulcaniche






- Altitudine del aeroporto : 74 ft
- Codice IATA : EIN


EHEH - Eindhoven

ULTIMO METAR :
  • 151725Z AUTO 29005KT 220V010 9999 BKN043 OVC048 19/12 Q1015 BLU NOSIG

METARs OBSOLETI :
  • 151655Z AUTO 30004KT 240V350 9999 FEW043 BKN067 OVC075 19/12 Q1015 BLU NOSIG
  • 151625Z AUTO 33005KT 300V020 9999 SCT063 BKN068 OVC074 20/11 Q1015 BLU NOSIG
  • 151555Z AUTO 33006KT 290V020 9999 FEW058 OVC067 20/11 Q1014 BLU NOSIG
  • 151525Z AUTO 36005KT 310V080 9999 FEW077 SCT084 20/11 Q1015 BLU NOSIG
  • 151455Z AUTO 32004KT 230V360 9999 FEW049 SCT076 20/11 Q1015 BLU NOSIG

TAF TAF EHEH
Valido dal 15 a 12 ore il 16 a 18 ore UTC


151106Z 1512/1618 27005KT 9999 SCT040 BKN060
BECMG 1604/1607 SCT012 BKN015
TEMPO 1605/1618 4000 DZRA SCT006 SCT012 BKN016



MetMap, La meteo Aeronautica in un colpo d'occhio ! - Copyright ORBIFLY Dicembre 2007 - Disclaimer

ORBIFLY MET'MAP TEAM :

Programmazione e sviluppo : Alexandra Zaïnal
Concezione : Baudouin d'Aumeries
Aiuto per la programmazione : Marc-Olivier Méhu
Supporto tecnico e logistico : Manuel Goepfert
Aiuto per la traduzione : Arnaldo La Scala

Contatto : metmap@orbifly.com




FONTI E CREDITI :

   NOAA